sensor_id;sensor_type;location;lat;lon;timestamp;P1;durP1;ratioP1;P2;durP2;ratioP2
33138;SDS011;19501;50.948;5.316;2023-03-01T00:01:22;39.55;;;16.48;;
33138;SDS011;19501;50.948;5.316;2023-03-01T00:03:50;31.50;;;14.23;;
33138;SDS011;19501;50.948;5.316;2023-03-01T00:06:16;28.48;;;13.88;;
33138;SDS011;19501;50.948;5.316;2023-03-01T00:08:43;30.52;;;14.07;;
33138;SDS011;19501;50.948;5.316;2023-03-01T00:11:16;30.02;;;13.73;;
33138;SDS011;19501;50.948;5.316;2023-03-01T00:13:44;33.17;;;14.73;;
33138;SDS011;19501;50.948;5.316;2023-03-01T00:16:20;29.05;;;14.18;;
33138;SDS011;19501;50.948;5.316;2023-03-01T00:18:48;28.92;;;14.07;;
33138;SDS011;19501;50.948;5.316;2023-03-01T00:21:14;31.23;;;13.68;;
33138;SDS011;19501;50.948;5.316;2023-03-01T00:23:40;30.58;;;14.38;;
33138;SDS011;19501;50.948;5.316;2023-03-01T00:26:07;30.10;;;14.32;;
33138;SDS011;19501;50.948;5.316;2023-03-01T00:28:37;27.35;;;13.25;;
33138;SDS011;19501;50.948;5.316;2023-03-01T00:31:07;27.60;;;13.05;;
33138;SDS011;19501;50.948;5.316;2023-03-01T00:33:35;31.07;;;14.40;;
33138;SDS011;19501;50.948;5.316;2023-03-01T00:36:01;30.58;;;13.85;;
33138;SDS011;19501;50.948;5.316;2023-03-01T00:38:27;30.77;;;13.98;;
33138;SDS011;19501;50.948;5.316;2023-03-01T00:40:52;29.45;;;14.75;;
33138;SDS011;19501;50.948;5.316;2023-03-01T00:43:20;29.98;;;14.05;;
33138;SDS011;19501;50.948;5.316;2023-03-01T00:45:46;29.25;;;13.95;;
33138;SDS011;19501;50.948;5.316;2023-03-01T00:48:12;35.67;;;15.48;;
33138;SDS011;19501;50.948;5.316;2023-03-01T00:50:37;30.63;;;15.15;;
33138;SDS011;19501;50.948;5.316;2023-03-01T00:53:03;33.60;;;15.30;;
33138;SDS011;19501;50.948;5.316;2023-03-01T00:55:30;34.65;;;15.88;;
33138;SDS011;19501;50.948;5.316;2023-03-01T00:57:55;33.03;;;15.15;;
33138;SDS011;19501;50.948;5.316;2023-03-01T01:00:21;35.10;;;15.25;;
33138;SDS011;19501;50.948;5.316;2023-03-01T01:02:47;28.60;;;13.57;;
33138;SDS011;19501;50.948;5.316;2023-03-01T01:05:13;26.77;;;13.77;;
33138;SDS011;19501;50.948;5.316;2023-03-01T01:07:39;30.08;;;13.15;;
33138;SDS011;19501;50.948;5.316;2023-03-01T01:10:05;28.60;;;13.95;;
33138;SDS011;19501;50.948;5.316;2023-03-01T01:12:32;30.27;;;13.55;;
33138;SDS011;19501;50.948;5.316;2023-03-01T01:14:57;34.25;;;14.45;;
33138;SDS011;19501;50.948;5.316;2023-03-01T01:17:23;33.65;;;13.23;;
33138;SDS011;19501;50.948;5.316;2023-03-01T01:19:52;29.48;;;14.00;;
33138;SDS011;19501;50.948;5.316;2023-03-01T01:22:18;28.45;;;14.40;;
33138;SDS011;19501;50.948;5.316;2023-03-01T01:24:46;30.13;;;13.82;;
33138;SDS011;19501;50.948;5.316;2023-03-01T01:27:11;30.52;;;13.15;;
33138;SDS011;19501;50.948;5.316;2023-03-01T01:29:37;30.58;;;14.07;;
33138;SDS011;19501;50.948;5.316;2023-03-01T01:32:03;27.63;;;13.50;;
33138;SDS011;19501;50.948;5.316;2023-03-01T01:34:31;34.13;;;14.77;;
33138;SDS011;19501;50.948;5.316;2023-03-01T01:36:56;27.77;;;13.32;;
33138;SDS011;19501;50.948;5.316;2023-03-01T01:39:22;27.80;;;13.85;;
33138;SDS011;19501;50.948;5.316;2023-03-01T01:41:48;29.23;;;14.23;;
33138;SDS011;19501;50.948;5.316;2023-03-01T01:46:42;29.98;;;14.43;;
33138;SDS011;19501;50.948;5.316;2023-03-01T01:49:19;29.02;;;14.45;;
33138;SDS011;19501;50.948;5.316;2023-03-01T01:51:51;32.42;;;14.77;;
33138;SDS011;19501;50.948;5.316;2023-03-01T01:54:27;30.88;;;14.80;;
33138;SDS011;19501;50.948;5.316;2023-03-01T01:57:02;30.70;;;13.73;;
33138;SDS011;19501;50.948;5.316;2023-03-01T01:59:32;29.92;;;13.63;;
33138;SDS011;19501;50.948;5.316;2023-03-01T02:01:59;29.00;;;14.05;;
33138;SDS011;19501;50.948;5.316;2023-03-01T02:04:28;31.90;;;14.73;;
33138;SDS011;19501;50.948;5.316;2023-03-01T02:06:59;30.90;;;14.32;;
33138;SDS011;19501;50.948;5.316;2023-03-01T02:09:29;29.02;;;13.73;;
33138;SDS011;19501;50.948;5.316;2023-03-01T02:11:56;32.38;;;14.55;;
33138;SDS011;19501;50.948;5.316;2023-03-01T02:14:25;34.97;;;14.48;;
33138;SDS011;19501;50.948;5.316;2023-03-01T02:16:51;33.70;;;15.05;;
33138;SDS011;19501;50.948;5.316;2023-03-01T02:22:30;28.30;;;13.43;;
33138;SDS011;19501;50.948;5.316;2023-03-01T02:25:00;32.35;;;14.60;;
33138;SDS011;19501;50.948;5.316;2023-03-01T02:27:49;30.00;;;14.57;;
33138;SDS011;19501;50.948;5.316;2023-03-01T02:30:22;28.17;;;13.32;;
33138;SDS011;19501;50.948;5.316;2023-03-01T02:32:51;31.98;;;14.38;;
33138;SDS011;19501;50.948;5.316;2023-03-01T02:35:19;34.38;;;15.40;;
33138;SDS011;19501;50.948;5.316;2023-03-01T02:37:45;33.05;;;14.43;;
33138;SDS011;19501;50.948;5.316;2023-03-01T02:40:16;31.65;;;14.27;;
33138;SDS011;19501;50.948;5.316;2023-03-01T02:42:48;37.78;;;15.05;;
33138;SDS011;19501;50.948;5.316;2023-03-01T02:45:16;31.73;;;14.48;;
33138;SDS011;19501;50.948;5.316;2023-03-01T02:47:42;30.55;;;14.52;;
33138;SDS011;19501;50.948;5.316;2023-03-01T02:50:19;33.75;;;14.77;;
33138;SDS011;19501;50.948;5.316;2023-03-01T02:55:31;32.17;;;14.82;;
33138;SDS011;19501;50.948;5.316;2023-03-01T02:57:59;29.95;;;14.00;;
33138;SDS011;19501;50.948;5.316;2023-03-01T03:00:32;29.52;;;14.15;;
33138;SDS011;19501;50.948;5.316;2023-03-01T03:03:10;35.38;;;15.07;;
33138;SDS011;19501;50.948;5.316;2023-03-01T03:05:39;33.45;;;15.57;;
33138;SDS011;19501;50.948;5.316;2023-03-01T03:08:05;28.75;;;14.10;;
33138;SDS011;19501;50.948;5.316;2023-03-01T03:10:33;32.45;;;14.65;;
33138;SDS011;19501;50.948;5.316;2023-03-01T03:13:02;31.73;;;14.40;;
33138;SDS011;19501;50.948;5.316;2023-03-01T03:15:33;33.13;;;14.60;;
33138;SDS011;19501;50.948;5.316;2023-03-01T03:18:02;32.00;;;15.02;;
33138;SDS011;19501;50.948;5.316;2023-03-01T03:20:29;31.35;;;14.65;;
33138;SDS011;19501;50.948;5.316;2023-03-01T03:22:56;37.45;;;15.77;;
33138;SDS011;19501;50.948;5.316;2023-03-01T03:25:23;36.10;;;17.60;;
33138;SDS011;19501;50.948;5.316;2023-03-01T03:27:50;42.75;;;17.63;;
33138;SDS011;19501;50.948;5.316;2023-03-01T03:30:22;24.85;;;12.02;;
33138;SDS011;19501;50.948;5.316;2023-03-01T03:32:49;33.28;;;15.85;;
33138;SDS011;19501;50.948;5.316;2023-03-01T03:35:25;37.38;;;16.88;;
33138;SDS011;19501;50.948;5.316;2023-03-01T03:37:51;33.22;;;16.10;;
33138;SDS011;19501;50.948;5.316;2023-03-01T03:40:27;35.60;;;16.33;;
33138;SDS011;19501;50.948;5.316;2023-03-01T03:45:25;32.60;;;16.60;;
33138;SDS011;19501;50.948;5.316;2023-03-01T03:47:51;32.70;;;16.48;;
33138;SDS011;19501;50.948;5.316;2023-03-01T03:50:17;35.50;;;17.02;;
33138;SDS011;19501;50.948;5.316;2023-03-01T03:52:43;36.88;;;17.73;;
33138;SDS011;19501;50.948;5.316;2023-03-01T03:55:09;38.00;;;18.13;;
33138;SDS011;19501;50.948;5.316;2023-03-01T03:57:37;39.65;;;18.35;;
33138;SDS011;19501;50.948;5.316;2023-03-01T04:00:04;37.03;;;17.75;;
33138;SDS011;19501;50.948;5.316;2023-03-01T04:02:31;37.85;;;17.40;;
33138;SDS011;19501;50.948;5.316;2023-03-01T04:04:56;32.97;;;16.55;;
33138;SDS011;19501;50.948;5.316;2023-03-01T04:07:22;36.92;;;17.05;;
33138;SDS011;19501;50.948;5.316;2023-03-01T04:09:48;36.97;;;18.15;;
33138;SDS011;19501;50.948;5.316;2023-03-01T04:12:13;36.03;;;17.00;;
33138;SDS011;19501;50.948;5.316;2023-03-01T04:14:39;35.78;;;17.05;;
33138;SDS011;19501;50.948;5.316;2023-03-01T04:17:04;37.53;;;17.05;;
33138;SDS011;19501;50.948;5.316;2023-03-01T04:19:33;39.10;;;18.70;;
33138;SDS011;19501;50.948;5.316;2023-03-01T04:22:04;33.53;;;16.27;;
33138;SDS011;19501;50.948;5.316;2023-03-01T04:24:37;34.17;;;16.15;;
33138;SDS011;19501;50.948;5.316;2023-03-01T04:27:03;34.15;;;16.85;;
33138;SDS011;19501;50.948;5.316;2023-03-01T04:29:28;37.38;;;17.90;;
33138;SDS011;19501;50.948;5.316;2023-03-01T04:31:54;36.45;;;18.20;;
33138;SDS011;19501;50.948;5.316;2023-03-01T04:34:20;34.70;;;17.23;;
33138;SDS011;19501;50.948;5.316;2023-03-01T04:36:45;37.70;;;17.88;;
33138;SDS011;19501;50.948;5.316;2023-03-01T04:39:11;37.05;;;17.70;;
33138;SDS011;19501;50.948;5.316;2023-03-01T04:41:37;39.10;;;17.83;;
33138;SDS011;19501;50.948;5.316;2023-03-01T04:44:04;36.95;;;18.02;;
33138;SDS011;19501;50.948;5.316;2023-03-01T04:46:30;35.08;;;17.92;;
33138;SDS011;19501;50.948;5.316;2023-03-01T04:48:56;38.83;;;18.65;;
33138;SDS011;19501;50.948;5.316;2023-03-01T04:51:22;34.40;;;16.95;;
33138;SDS011;19501;50.948;5.316;2023-03-01T04:53:49;38.30;;;18.77;;
33138;SDS011;19501;50.948;5.316;2023-03-01T04:56:17;39.03;;;18.13;;
33138;SDS011;19501;50.948;5.316;2023-03-01T04:58:43;39.28;;;18.83;;
33138;SDS011;19501;50.948;5.316;2023-03-01T05:01:16;36.38;;;18.33;;
33138;SDS011;19501;50.948;5.316;2023-03-01T05:03:44;43.30;;;20.23;;
33138;SDS011;19501;50.948;5.316;2023-03-01T05:06:15;40.85;;;17.88;;
33138;SDS011;19501;50.948;5.316;2023-03-01T05:08:44;41.05;;;19.23;;
33138;SDS011;19501;50.948;5.316;2023-03-01T05:11:10;39.15;;;17.90;;
33138;SDS011;19501;50.948;5.316;2023-03-01T05:13:37;38.58;;;18.27;;
33138;SDS011;19501;50.948;5.316;2023-03-01T05:16:04;37.72;;;18.90;;
33138;SDS011;19501;50.948;5.316;2023-03-01T05:18:31;37.67;;;17.58;;
33138;SDS011;19501;50.948;5.316;2023-03-01T05:21:03;36.95;;;18.77;;
33138;SDS011;19501;50.948;5.316;2023-03-01T05:23:31;37.05;;;18.00;;
33138;SDS011;19501;50.948;5.316;2023-03-01T05:25:58;36.80;;;17.33;;
33138;SDS011;19501;50.948;5.316;2023-03-01T05:28:24;36.70;;;17.48;;
33138;SDS011;19501;50.948;5.316;2023-03-01T05:30:51;35.70;;;17.50;;
33138;SDS011;19501;50.948;5.316;2023-03-01T05:33:17;38.00;;;18.17;;
33138;SDS011;19501;50.948;5.316;2023-03-01T05:35:43;37.75;;;18.65;;
33138;SDS011;19501;50.948;5.316;2023-03-01T05:38:10;37.90;;;18.85;;
33138;SDS011;19501;50.948;5.316;2023-03-01T05:40:43;38.83;;;19.30;;
33138;SDS011;19501;50.948;5.316;2023-03-01T05:43:11;36.40;;;18.10;;
33138;SDS011;19501;50.948;5.316;2023-03-01T05:45:38;38.30;;;18.13;;
33138;SDS011;19501;50.948;5.316;2023-03-01T05:48:05;43.00;;;19.48;;
33138;SDS011;19501;50.948;5.316;2023-03-01T05:50:33;43.10;;;19.67;;
33138;SDS011;19501;50.948;5.316;2023-03-01T05:53:09;36.80;;;18.10;;
33138;SDS011;19501;50.948;5.316;2023-03-01T05:55:37;36.85;;;17.42;;
33138;SDS011;19501;50.948;5.316;2023-03-01T05:58:05;38.75;;;18.58;;
33138;SDS011;19501;50.948;5.316;2023-03-01T06:00:34;36.90;;;17.92;;
33138;SDS011;19501;50.948;5.316;2023-03-01T06:03:00;38.95;;;18.35;;
33138;SDS011;19501;50.948;5.316;2023-03-01T06:05:26;39.83;;;18.63;;
33138;SDS011;19501;50.948;5.316;2023-03-01T06:07:52;40.30;;;19.70;;
33138;SDS011;19501;50.948;5.316;2023-03-01T06:10:19;43.78;;;19.02;;
33138;SDS011;19501;50.948;5.316;2023-03-01T06:12:46;46.95;;;20.15;;
33138;SDS011;19501;50.948;5.316;2023-03-01T06:15:12;40.70;;;19.55;;
33138;SDS011;19501;50.948;5.316;2023-03-01T06:17:40;46.83;;;23.77;;
33138;SDS011;19501;50.948;5.316;2023-03-01T06:20:08;39.83;;;19.17;;
33138;SDS011;19501;50.948;5.316;2023-03-01T06:22:36;43.05;;;18.90;;
33138;SDS011;19501;50.948;5.316;2023-03-01T06:25:02;44.42;;;20.10;;
33138;SDS011;19501;50.948;5.316;2023-03-01T06:27:28;41.03;;;19.83;;
33138;SDS011;19501;50.948;5.316;2023-03-01T06:29:54;43.17;;;20.33;;
33138;SDS011;19501;50.948;5.316;2023-03-01T06:32:20;40.95;;;20.02;;
33138;SDS011;19501;50.948;5.316;2023-03-01T06:34:46;45.63;;;19.58;;
33138;SDS011;19501;50.948;5.316;2023-03-01T06:37:11;42.08;;;19.58;;
33138;SDS011;19501;50.948;5.316;2023-03-01T06:39:37;41.72;;;19.30;;
33138;SDS011;19501;50.948;5.316;2023-03-01T06:42:03;41.10;;;19.85;;
33138;SDS011;19501;50.948;5.316;2023-03-01T06:44:29;39.53;;;20.10;;
33138;SDS011;19501;50.948;5.316;2023-03-01T06:46:55;41.38;;;19.63;;
33138;SDS011;19501;50.948;5.316;2023-03-01T06:49:21;41.08;;;21.20;;
33138;SDS011;19501;50.948;5.316;2023-03-01T06:51:46;38.92;;;19.23;;
33138;SDS011;19501;50.948;5.316;2023-03-01T06:54:12;39.00;;;18.08;;
33138;SDS011;19501;50.948;5.316;2023-03-01T06:56:38;38.55;;;18.67;;
33138;SDS011;19501;50.948;5.316;2023-03-01T06:59:04;42.55;;;19.45;;
33138;SDS011;19501;50.948;5.316;2023-03-01T07:01:30;40.55;;;19.63;;
33138;SDS011;19501;50.948;5.316;2023-03-01T07:03:56;42.55;;;19.23;;
33138;SDS011;19501;50.948;5.316;2023-03-01T07:06:22;40.97;;;18.63;;
33138;SDS011;19501;50.948;5.316;2023-03-01T07:08:48;42.13;;;19.02;;
33138;SDS011;19501;50.948;5.316;2023-03-01T07:11:14;40.13;;;18.65;;
33138;SDS011;19501;50.948;5.316;2023-03-01T07:13:40;40.50;;;18.98;;
33138;SDS011;19501;50.948;5.316;2023-03-01T07:16:06;40.85;;;19.73;;
33138;SDS011;19501;50.948;5.316;2023-03-01T07:18:32;37.22;;;18.02;;
33138;SDS011;19501;50.948;5.316;2023-03-01T07:20:58;46.80;;;19.60;;
33138;SDS011;19501;50.948;5.316;2023-03-01T07:23:28;43.97;;;19.88;;
33138;SDS011;19501;50.948;5.316;2023-03-01T07:25:55;40.75;;;19.75;;
33138;SDS011;19501;50.948;5.316;2023-03-01T07:28:22;44.70;;;20.65;;
33138;SDS011;19501;50.948;5.316;2023-03-01T07:30:48;43.38;;;21.23;;
33138;SDS011;19501;50.948;5.316;2023-03-01T07:33:14;40.63;;;20.20;;
33138;SDS011;19501;50.948;5.316;2023-03-01T07:35:40;37.47;;;19.02;;
33138;SDS011;19501;50.948;5.316;2023-03-01T07:38:05;41.17;;;18.85;;
33138;SDS011;19501;50.948;5.316;2023-03-01T07:40:31;41.70;;;19.40;;
33138;SDS011;19501;50.948;5.316;2023-03-01T07:42:59;42.05;;;19.42;;
33138;SDS011;19501;50.948;5.316;2023-03-01T07:45:26;40.00;;;19.20;;
33138;SDS011;19501;50.948;5.316;2023-03-01T07:47:52;45.60;;;20.45;;
33138;SDS011;19501;50.948;5.316;2023-03-01T07:50:19;43.88;;;18.80;;
33138;SDS011;19501;50.948;5.316;2023-03-01T07:52:45;44.38;;;20.30;;
33138;SDS011;19501;50.948;5.316;2023-03-01T07:55:12;35.97;;;18.63;;
33138;SDS011;19501;50.948;5.316;2023-03-01T07:57:40;42.53;;;18.48;;
33138;SDS011;19501;50.948;5.316;2023-03-01T08:00:06;38.28;;;17.92;;
33138;SDS011;19501;50.948;5.316;2023-03-01T08:02:36;39.10;;;18.42;;
33138;SDS011;19501;50.948;5.316;2023-03-01T08:05:02;41.58;;;18.92;;
33138;SDS011;19501;50.948;5.316;2023-03-01T08:07:28;46.88;;;21.40;;
33138;SDS011;19501;50.948;5.316;2023-03-01T08:09:53;40.15;;;18.05;;
33138;SDS011;19501;50.948;5.316;2023-03-01T08:12:19;37.10;;;19.25;;
33138;SDS011;19501;50.948;5.316;2023-03-01T08:14:44;41.38;;;19.80;;
33138;SDS011;19501;50.948;5.316;2023-03-01T08:17:10;43.80;;;19.50;;
33138;SDS011;19501;50.948;5.316;2023-03-01T08:19:38;41.47;;;19.58;;
33138;SDS011;19501;50.948;5.316;2023-03-01T08:22:04;40.65;;;19.75;;
33138;SDS011;19501;50.948;5.316;2023-03-01T08:24:30;40.75;;;18.98;;
33138;SDS011;19501;50.948;5.316;2023-03-01T08:26:55;39.92;;;19.42;;
33138;SDS011;19501;50.948;5.316;2023-03-01T08:29:21;39.95;;;18.25;;
33138;SDS011;19501;50.948;5.316;2023-03-01T08:31:47;38.67;;;19.10;;
33138;SDS011;19501;50.948;5.316;2023-03-01T08:34:14;39.55;;;18.95;;
33138;SDS011;19501;50.948;5.316;2023-03-01T08:36:42;36.92;;;17.80;;
33138;SDS011;19501;50.948;5.316;2023-03-01T08:39:13;37.38;;;18.23;;
33138;SDS011;19501;50.948;5.316;2023-03-01T08:41:40;35.55;;;18.02;;
33138;SDS011;19501;50.948;5.316;2023-03-01T08:44:07;41.25;;;20.52;;
33138;SDS011;19501;50.948;5.316;2023-03-01T08:46:35;40.35;;;18.42;;
33138;SDS011;19501;50.948;5.316;2023-03-01T08:49:03;42.88;;;20.23;;
33138;SDS011;19501;50.948;5.316;2023-03-01T08:51:30;41.60;;;19.13;;
33138;SDS011;19501;50.948;5.316;2023-03-01T08:54:01;36.17;;;18.38;;
33138;SDS011;19501;50.948;5.316;2023-03-01T08:56:31;44.17;;;24.63;;
33138;SDS011;19501;50.948;5.316;2023-03-01T08:58:58;40.90;;;19.45;;
33138;SDS011;19501;50.948;5.316;2023-03-01T09:01:26;40.78;;;19.38;;
33138;SDS011;19501;50.948;5.316;2023-03-01T09:03:51;39.33;;;18.42;;
33138;SDS011;19501;50.948;5.316;2023-03-01T09:06:17;38.97;;;19.15;;
33138;SDS011;19501;50.948;5.316;2023-03-01T09:08:44;38.13;;;19.25;;
33138;SDS011;19501;50.948;5.316;2023-03-01T09:11:12;42.33;;;19.23;;
33138;SDS011;19501;50.948;5.316;2023-03-01T09:13:41;37.35;;;18.42;;
33138;SDS011;19501;50.948;5.316;2023-03-01T09:16:07;45.45;;;21.15;;
33138;SDS011;19501;50.948;5.316;2023-03-01T09:18:34;41.30;;;20.80;;
33138;SDS011;19501;50.948;5.316;2023-03-01T09:21:07;40.70;;;19.15;;
33138;SDS011;19501;50.948;5.316;2023-03-01T09:23:38;40.38;;;19.90;;
33138;SDS011;19501;50.948;5.316;2023-03-01T09:26:09;39.08;;;18.17;;
33138;SDS011;19501;50.948;5.316;2023-03-01T09:28:47;45.80;;;21.33;;
33138;SDS011;19501;50.948;5.316;2023-03-01T09:31:14;40.58;;;19.52;;
33138;SDS011;19501;50.948;5.316;2023-03-01T09:33:41;37.65;;;18.35;;
33138;SDS011;19501;50.948;5.316;2023-03-01T09:36:09;40.15;;;18.27;;
33138;SDS011;19501;50.948;5.316;2023-03-01T09:38:37;44.17;;;18.48;;
33138;SDS011;19501;50.948;5.316;2023-03-01T09:41:08;41.97;;;19.17;;
33138;SDS011;19501;50.948;5.316;2023-03-01T09:43:55;37.45;;;17.55;;
33138;SDS011;19501;50.948;5.316;2023-03-01T09:46:25;37.72;;;17.95;;
33138;SDS011;19501;50.948;5.316;2023-03-01T09:48:54;38.35;;;18.30;;
33138;SDS011;19501;50.948;5.316;2023-03-01T09:51:34;37.28;;;18.52;;
33138;SDS011;19501;50.948;5.316;2023-03-01T09:54:01;37.95;;;17.20;;
33138;SDS011;19501;50.948;5.316;2023-03-01T09:56:30;38.70;;;17.95;;
33138;SDS011;19501;50.948;5.316;2023-03-01T09:59:15;39.38;;;17.45;;
33138;SDS011;19501;50.948;5.316;2023-03-01T10:02:01;39.65;;;18.67;;
33138;SDS011;19501;50.948;5.316;2023-03-01T10:07:19;39.95;;;19.42;;
33138;SDS011;19501;50.948;5.316;2023-03-01T10:10:05;35.90;;;17.27;;
33138;SDS011;19501;50.948;5.316;2023-03-01T10:12:37;41.03;;;19.85;;
33138;SDS011;19501;50.948;5.316;2023-03-01T10:15:07;39.20;;;17.92;;
33138;SDS011;19501;50.948;5.316;2023-03-01T10:20:17;42.13;;;18.23;;
33138;SDS011;19501;50.948;5.316;2023-03-01T10:22:46;39.10;;;19.30;;
33138;SDS011;19501;50.948;5.316;2023-03-01T10:25:15;38.45;;;17.80;;
33138;SDS011;19501;50.948;5.316;2023-03-01T10:28:02;40.08;;;18.73;;
33138;SDS011;19501;50.948;5.316;2023-03-01T10:30:36;32.47;;;15.70;;
33138;SDS011;19501;50.948;5.316;2023-03-01T10:33:08;32.30;;;15.07;;
33138;SDS011;19501;50.948;5.316;2023-03-01T10:35:45;38.20;;;17.20;;
33138;SDS011;19501;50.948;5.316;2023-03-01T10:38:12;37.03;;;17.90;;
33138;SDS011;19501;50.948;5.316;2023-03-01T10:40:55;39.42;;;18.42;;
33138;SDS011;19501;50.948;5.316;2023-03-01T10:43:30;36.83;;;17.23;;
33138;SDS011;19501;50.948;5.316;2023-03-01T10:46:24;36.78;;;18.60;;
33138;SDS011;19501;50.948;5.316;2023-03-01T10:49:05;39.78;;;18.85;;
33138;SDS011;19501;50.948;5.316;2023-03-01T10:51:32;38.80;;;19.40;;
33138;SDS011;19501;50.948;5.316;2023-03-01T10:53:58;42.08;;;21.40;;
33138;SDS011;19501;50.948;5.316;2023-03-01T10:56:23;37.00;;;19.05;;
33138;SDS011;19501;50.948;5.316;2023-03-01T10:59:00;38.08;;;19.17;;
33138;SDS011;19501;50.948;5.316;2023-03-01T11:01:32;37.60;;;18.58;;
33138;SDS011;19501;50.948;5.316;2023-03-01T11:04:18;37.72;;;18.35;;
33138;SDS011;19501;50.948;5.316;2023-03-01T11:06:43;37.10;;;17.65;;
33138;SDS011;19501;50.948;5.316;2023-03-01T11:09:23;36.03;;;16.98;;
33138;SDS011;19501;50.948;5.316;2023-03-01T11:11:56;35.95;;;17.95;;
33138;SDS011;19501;50.948;5.316;2023-03-01T11:19:39;35.03;;;16.83;;
33138;SDS011;19501;50.948;5.316;2023-03-01T11:27:35;36.70;;;17.55;;
33138;SDS011;19501;50.948;5.316;2023-03-01T11:30:05;35.60;;;17.38;;
33138;SDS011;19501;50.948;5.316;2023-03-01T11:32:42;36.58;;;18.05;;
33138;SDS011;19501;50.948;5.316;2023-03-01T11:35:17;40.10;;;18.13;;
33138;SDS011;19501;50.948;5.316;2023-03-01T11:40:46;31.52;;;16.02;;
33138;SDS011;19501;50.948;5.316;2023-03-01T11:43:37;42.33;;;16.15;;
33138;SDS011;19501;50.948;5.316;2023-03-01T12:05:42;31.30;;;15.25;;
33138;SDS011;19501;50.948;5.316;2023-03-01T12:11:01;29.15;;;16.00;;
33138;SDS011;19501;50.948;5.316;2023-03-01T12:29:59;29.20;;;16.38;;
33138;SDS011;19501;50.948;5.316;2023-03-01T12:38:42;31.75;;;17.10;;
33138;SDS011;19501;50.948;5.316;2023-03-01T12:49:12;29.48;;;16.70;;
33138;SDS011;19501;50.948;5.316;2023-03-01T12:51:44;31.77;;;17.08;;
33138;SDS011;19501;50.948;5.316;2023-03-01T12:54:35;29.85;;;16.80;;
33138;SDS011;19501;50.948;5.316;2023-03-01T12:57:13;31.83;;;16.00;;
33138;SDS011;19501;50.948;5.316;2023-03-01T12:59:42;28.05;;;15.80;;
33138;SDS011;19501;50.948;5.316;2023-03-01T13:02:15;28.95;;;15.63;;
33138;SDS011;19501;50.948;5.316;2023-03-01T13:10:06;29.73;;;16.10;;
33138;SDS011;19501;50.948;5.316;2023-03-01T13:31:55;27.98;;;15.90;;
33138;SDS011;19501;50.948;5.316;2023-03-01T13:33:58;27.85;;;15.07;;
33138;SDS011;19501;50.948;5.316;2023-03-01T13:52:32;31.00;;;16.83;;
33138;SDS011;19501;50.948;5.316;2023-03-01T13:55:00;27.25;;;15.48;;
33138;SDS011;19501;50.948;5.316;2023-03-01T13:57:36;28.67;;;16.13;;
33138;SDS011;19501;50.948;5.316;2023-03-01T14:02:40;30.58;;;16.42;;
33138;SDS011;19501;50.948;5.316;2023-03-01T14:05:08;29.58;;;15.75;;
33138;SDS011;19501;50.948;5.316;2023-03-01T14:07:36;30.77;;;15.48;;
33138;SDS011;19501;50.948;5.316;2023-03-01T14:10:06;29.92;;;14.82;;
33138;SDS011;19501;50.948;5.316;2023-03-01T14:17:33;30.10;;;15.23;;
33138;SDS011;19501;50.948;5.316;2023-03-01T14:20:11;28.30;;;15.18;;
33138;SDS011;19501;50.948;5.316;2023-03-01T14:22:49;29.90;;;15.13;;
33138;SDS011;19501;50.948;5.316;2023-03-01T14:25:31;29.08;;;15.05;;
33138;SDS011;19501;50.948;5.316;2023-03-01T14:30:59;28.83;;;15.23;;
33138;SDS011;19501;50.948;5.316;2023-03-01T14:38:22;32.60;;;16.33;;
33138;SDS011;19501;50.948;5.316;2023-03-01T14:40:54;28.88;;;15.57;;
33138;SDS011;19501;50.948;5.316;2023-03-01T14:43:23;31.10;;;16.13;;
33138;SDS011;19501;50.948;5.316;2023-03-01T14:45:53;29.92;;;15.40;;
33138;SDS011;19501;50.948;5.316;2023-03-01T14:48:18;32.83;;;14.88;;
33138;SDS011;19501;50.948;5.316;2023-03-01T14:50:44;28.08;;;14.63;;
33138;SDS011;19501;50.948;5.316;2023-03-01T14:53:21;28.23;;;14.15;;
33138;SDS011;19501;50.948;5.316;2023-03-01T14:55:53;28.58;;;14.85;;
33138;SDS011;19501;50.948;5.316;2023-03-01T14:58:22;28.05;;;14.82;;
33138;SDS011;19501;50.948;5.316;2023-03-01T15:01:10;32.88;;;14.45;;
33138;SDS011;19501;50.948;5.316;2023-03-01T15:03:43;28.05;;;14.88;;
33138;SDS011;19501;50.948;5.316;2023-03-01T15:06:11;28.33;;;15.40;;
33138;SDS011;19501;50.948;5.316;2023-03-01T15:08:42;28.25;;;13.77;;
33138;SDS011;19501;50.948;5.316;2023-03-01T15:11:25;26.58;;;13.27;;
33138;SDS011;19501;50.948;5.316;2023-03-01T15:13:54;27.48;;;13.88;;
33138;SDS011;19501;50.948;5.316;2023-03-01T15:18:50;32.38;;;14.00;;
33138;SDS011;19501;50.948;5.316;2023-03-01T15:21:22;30.45;;;14.55;;
33138;SDS011;19501;50.948;5.316;2023-03-01T15:26:29;27.20;;;13.68;;
33138;SDS011;19501;50.948;5.316;2023-03-01T15:28:57;27.42;;;12.75;;
33138;SDS011;19501;50.948;5.316;2023-03-01T15:31:25;26.67;;;12.70;;
33138;SDS011;19501;50.948;5.316;2023-03-01T15:36:48;26.90;;;12.07;;
33138;SDS011;19501;50.948;5.316;2023-03-01T15:42:03;29.27;;;13.25;;
33138;SDS011;19501;50.948;5.316;2023-03-01T15:44:31;29.50;;;14.57;;
33138;SDS011;19501;50.948;5.316;2023-03-01T15:46:59;32.10;;;14.85;;
33138;SDS011;19501;50.948;5.316;2023-03-01T15:49:34;26.10;;;12.25;;
33138;SDS011;19501;50.948;5.316;2023-03-01T15:52:05;26.55;;;11.52;;
33138;SDS011;19501;50.948;5.316;2023-03-01T15:54:55;27.67;;;13.55;;
33138;SDS011;19501;50.948;5.316;2023-03-01T15:57:28;30.13;;;15.57;;
33138;SDS011;19501;50.948;5.316;2023-03-01T15:59:54;24.55;;;11.55;;
33138;SDS011;19501;50.948;5.316;2023-03-01T16:02:20;32.15;;;11.95;;
33138;SDS011;19501;50.948;5.316;2023-03-01T16:04:47;27.05;;;11.48;;
33138;SDS011;19501;50.948;5.316;2023-03-01T16:07:16;30.55;;;12.18;;
33138;SDS011;19501;50.948;5.316;2023-03-01T16:09:42;24.35;;;11.50;;
33138;SDS011;19501;50.948;5.316;2023-03-01T16:12:13;28.02;;;13.70;;
33138;SDS011;19501;50.948;5.316;2023-03-01T16:14:41;27.48;;;12.23;;
33138;SDS011;19501;50.948;5.316;2023-03-01T16:17:07;24.42;;;11.48;;
33138;SDS011;19501;50.948;5.316;2023-03-01T16:19:35;27.98;;;12.20;;
33138;SDS011;19501;50.948;5.316;2023-03-01T16:22:02;25.75;;;11.50;;
33138;SDS011;19501;50.948;5.316;2023-03-01T16:24:28;25.10;;;10.98;;
33138;SDS011;19501;50.948;5.316;2023-03-01T16:26:54;24.50;;;11.25;;
33138;SDS011;19501;50.948;5.316;2023-03-01T16:29:19;31.08;;;14.05;;
33138;SDS011;19501;50.948;5.316;2023-03-01T16:31:45;26.02;;;11.50;;
33138;SDS011;19501;50.948;5.316;2023-03-01T16:34:11;27.80;;;11.85;;
33138;SDS011;19501;50.948;5.316;2023-03-01T16:36:37;29.67;;;11.90;;
33138;SDS011;19501;50.948;5.316;2023-03-01T16:39:03;28.73;;;11.73;;
33138;SDS011;19501;50.948;5.316;2023-03-01T16:41:29;26.00;;;12.40;;
33138;SDS011;19501;50.948;5.316;2023-03-01T16:43:55;25.77;;;11.50;;
33138;SDS011;19501;50.948;5.316;2023-03-01T16:46:25;28.75;;;11.15;;
33138;SDS011;19501;50.948;5.316;2023-03-01T16:48:53;27.65;;;11.73;;
33138;SDS011;19501;50.948;5.316;2023-03-01T16:51:19;23.02;;;10.68;;
33138;SDS011;19501;50.948;5.316;2023-03-01T16:53:46;25.60;;;11.48;;
33138;SDS011;19501;50.948;5.316;2023-03-01T16:56:12;23.77;;;11.00;;
33138;SDS011;19501;50.948;5.316;2023-03-01T16:58:38;25.17;;;11.85;;
33138;SDS011;19501;50.948;5.316;2023-03-01T17:01:08;30.92;;;12.02;;